Terminal Aerodrome Forecast
Issued by NWS

Home | Current Version | Previous Version | Text Only | Print | Product List | Glossary On
Versions: 1 2 3 4 5 6 7 8 9 10 11 12 13 14 15 16 17
000
FTUS43 KBIS 110800 AAC
TAFJMS
TAF AMD
KJMS 110846Z 1109/1206 23004KT 1/4SM FG VV003
      TEMPO 1109/1113 4SM BR SCT005
     FM111300 33005KT P6SM FEW080
     FM111800 35009KT P6SM SCT120
     FM120100 36007KT P6SM SCT070 BKN110=

USA.gov is the U.S. government's official web portal to all federal, state and local government web resources and services.